sensor_id;sensor_type;location;lat;lon;timestamp;pressure;altitude;pressure_sealevel;temperature;humidity
68712;BME280;55690;51.566;19.198;2023-05-11T00:01:31;101955.91;;;13.28;58.95
68712;BME280;55690;51.566;19.198;2023-05-11T00:05:37;101964.80;;;13.45;58.93
68712;BME280;55690;51.566;19.198;2023-05-11T00:09:43;101961.70;;;12.95;59.72
68712;BME280;55690;51.566;19.198;2023-05-11T00:13:49;101949.97;;;13.08;59.57
68712;BME280;55690;51.566;19.198;2023-05-11T00:17:55;101954.16;;;13.27;59.13
68712;BME280;55690;51.566;19.198;2023-05-11T00:22:02;101954.98;;;12.87;59.90
68712;BME280;55690;51.566;19.198;2023-05-11T00:26:08;101943.66;;;13.21;59.54
68712;BME280;55690;51.566;19.198;2023-05-11T00:30:14;101947.23;;;13.08;59.55
68712;BME280;55690;51.566;19.198;2023-05-11T00:34:20;101953.09;;;13.30;59.37
68712;BME280;55690;51.566;19.198;2023-05-11T00:38:26;101951.83;;;13.07;59.47
68712;BME280;55690;51.566;19.198;2023-05-11T00:42:33;101951.72;;;13.09;59.41
68712;BME280;55690;51.566;19.198;2023-05-11T00:46:39;101952.61;;;13.23;58.92
68712;BME280;55690;51.566;19.198;2023-05-11T00:50:45;101947.25;;;13.22;58.90
68712;BME280;55690;51.566;19.198;2023-05-11T00:54:51;101945.14;;;12.98;59.55
68712;BME280;55690;51.566;19.198;2023-05-11T00:58:57;101950.59;;;12.70;59.81
68712;BME280;55690;51.566;19.198;2023-05-11T01:03:04;101949.04;;;12.94;59.49
68712;BME280;55690;51.566;19.198;2023-05-11T01:07:22;101952.55;;;12.82;60.02
68712;BME280;55690;51.566;19.198;2023-05-11T01:15:54;101939.12;;;12.79;60.02
68712;BME280;55690;51.566;19.198;2023-05-11T01:19:57;101944.36;;;12.96;59.80
68712;BME280;55690;51.566;19.198;2023-05-11T01:32:29;101946.71;;;12.74;59.59
68712;BME280;55690;51.566;19.198;2023-05-11T01:36:35;101946.36;;;13.07;59.41
68712;BME280;55690;51.566;19.198;2023-05-11T01:40:41;101943.09;;;12.88;59.41
68712;BME280;55690;51.566;19.198;2023-05-11T01:44:46;101944.85;;;12.89;59.58
68712;BME280;55690;51.566;19.198;2023-05-11T01:48:56;101945.27;;;12.54;59.73
68712;BME280;55690;51.566;19.198;2023-05-11T01:53:00;101943.01;;;12.75;59.25
68712;BME280;55690;51.566;19.198;2023-05-11T01:57:04;101943.98;;;12.74;59.76
68712;BME280;55690;51.566;19.198;2023-05-11T02:01:07;101936.20;;;12.40;59.90
68712;BME280;55690;51.566;19.198;2023-05-11T02:05:10;101942.81;;;12.64;60.22
68712;BME280;55690;51.566;19.198;2023-05-11T02:09:15;101947.77;;;12.29;60.39
68712;BME280;55690;51.566;19.198;2023-05-11T02:13:18;101951.45;;;12.28;59.78
68712;BME280;55690;51.566;19.198;2023-05-11T02:17:20;101959.34;;;12.32;60.03
68712;BME280;55690;51.566;19.198;2023-05-11T02:21:25;101958.89;;;12.54;59.68
68712;BME280;55690;51.566;19.198;2023-05-11T02:25:28;101960.33;;;12.60;59.46
68712;BME280;55690;51.566;19.198;2023-05-11T02:29:30;101964.04;;;12.45;59.97
68712;BME280;55690;51.566;19.198;2023-05-11T02:33:38;101962.76;;;12.36;60.30
68712;BME280;55690;51.566;19.198;2023-05-11T02:37:45;101963.84;;;12.48;60.21
68712;BME280;55690;51.566;19.198;2023-05-11T02:41:55;101969.57;;;12.57;59.86
68712;BME280;55690;51.566;19.198;2023-05-11T02:46:02;101973.26;;;12.56;59.93
68712;BME280;55690;51.566;19.198;2023-05-11T02:50:07;101967.54;;;12.47;60.10
68712;BME280;55690;51.566;19.198;2023-05-11T02:54:11;101971.48;;;12.27;60.43
68712;BME280;55690;51.566;19.198;2023-05-11T02:58:14;101970.19;;;12.04;60.75
68712;BME280;55690;51.566;19.198;2023-05-11T03:02:16;101975.93;;;12.14;60.72
68712;BME280;55690;51.566;19.198;2023-05-11T03:06:18;101976.97;;;11.97;60.92
68712;BME280;55690;51.566;19.198;2023-05-11T03:10:19;101972.67;;;11.93;61.28
68712;BME280;55690;51.566;19.198;2023-05-11T03:14:22;101974.43;;;11.94;61.14
68712;BME280;55690;51.566;19.198;2023-05-11T03:18:28;101974.33;;;11.95;60.99
68712;BME280;55690;51.566;19.198;2023-05-11T03:22:34;101972.52;;;11.80;61.61
68712;BME280;55690;51.566;19.198;2023-05-11T03:26:40;101975.23;;;11.80;61.51
68712;BME280;55690;51.566;19.198;2023-05-11T03:30:47;101972.62;;;11.79;61.33
68712;BME280;55690;51.566;19.198;2023-05-11T03:34:52;101973.22;;;11.84;61.76
68712;BME280;55690;51.566;19.198;2023-05-11T03:38:58;101982.28;;;11.69;61.75
68712;BME280;55690;51.566;19.198;2023-05-11T03:43:06;101982.17;;;11.86;60.87
68712;BME280;55690;51.566;19.198;2023-05-11T03:47:12;101976.36;;;11.92;61.43
68712;BME280;55690;51.566;19.198;2023-05-11T03:51:17;101974.99;;;11.69;61.21
68712;BME280;55690;51.566;19.198;2023-05-11T03:55:23;101974.13;;;11.69;61.40
68712;BME280;55690;51.566;19.198;2023-05-11T03:59:29;101976.55;;;11.89;60.95
68712;BME280;55690;51.566;19.198;2023-05-11T04:07:49;101982.64;;;12.08;60.77
68712;BME280;55690;51.566;19.198;2023-05-11T04:11:52;101995.91;;;12.28;60.77
68712;BME280;55690;51.566;19.198;2023-05-11T04:15:54;101983.50;;;12.53;59.82
68712;BME280;55690;51.566;19.198;2023-05-11T04:20:00;101981.34;;;12.58;60.37
68712;BME280;55690;51.566;19.198;2023-05-11T04:24:06;101993.78;;;12.33;60.26
68712;BME280;55690;51.566;19.198;2023-05-11T04:28:12;101989.72;;;12.69;60.00
68712;BME280;55690;51.566;19.198;2023-05-11T04:32:18;101985.84;;;12.87;59.36
68712;BME280;55690;51.566;19.198;2023-05-11T04:36:25;101989.05;;;12.94;59.89
68712;BME280;55690;51.566;19.198;2023-05-11T04:40:31;101980.27;;;13.58;59.17
68712;BME280;55690;51.566;19.198;2023-05-11T04:44:37;101985.95;;;12.86;59.57
68712;BME280;55690;51.566;19.198;2023-05-11T04:48:43;101981.54;;;13.26;59.00
68712;BME280;55690;51.566;19.198;2023-05-11T04:52:49;101979.59;;;13.55;58.17
68712;BME280;55690;51.566;19.198;2023-05-11T04:56:55;101986.60;;;13.59;58.49
68712;BME280;55690;51.566;19.198;2023-05-11T05:01:01;101921.39;;;13.42;57.88
68712;BME280;55690;51.566;19.198;2023-05-11T05:05:08;101978.16;;;14.16;57.96
68712;BME280;55690;51.566;19.198;2023-05-11T05:09:14;101986.31;;;14.03;57.46
68712;BME280;55690;51.566;19.198;2023-05-11T05:13:20;101984.46;;;14.56;57.82
68712;BME280;55690;51.566;19.198;2023-05-11T05:17:26;101978.96;;;14.81;56.95
68712;BME280;55690;51.566;19.198;2023-05-11T05:21:32;101984.43;;;14.81;56.61
68712;BME280;55690;51.566;19.198;2023-05-11T05:25:38;101980.96;;;15.28;57.25
68712;BME280;55690;51.566;19.198;2023-05-11T05:29:45;101985.76;;;15.38;55.85
68712;BME280;55690;51.566;19.198;2023-05-11T05:33:51;101987.73;;;15.72;55.87
68712;BME280;55690;51.566;19.198;2023-05-11T05:37:57;101991.23;;;15.74;55.10
68712;BME280;55690;51.566;19.198;2023-05-11T05:42:03;101983.08;;;16.20;54.83
68712;BME280;55690;51.566;19.198;2023-05-11T05:46:09;101983.63;;;16.37;55.04
68712;BME280;55690;51.566;19.198;2023-05-11T05:50:16;101978.88;;;16.85;54.06
68712;BME280;55690;51.566;19.198;2023-05-11T05:54:22;101980.82;;;17.39;53.54
68712;BME280;55690;51.566;19.198;2023-05-11T05:58:28;101986.84;;;16.99;53.75
68712;BME280;55690;51.566;19.198;2023-05-11T06:02:34;101983.67;;;17.48;53.99
68712;BME280;55690;51.566;19.198;2023-05-11T06:06:40;101990.91;;;17.49;53.11
68712;BME280;55690;51.566;19.198;2023-05-11T06:10:46;101982.86;;;17.80;52.87
68712;BME280;55690;51.566;19.198;2023-05-11T06:14:53;101991.78;;;17.72;53.06
68712;BME280;55690;51.566;19.198;2023-05-11T06:18:59;101976.29;;;18.03;52.78
68712;BME280;55690;51.566;19.198;2023-05-11T06:23:05;101980.30;;;18.20;51.97
68712;BME280;55690;51.566;19.198;2023-05-11T06:27:11;101984.14;;;18.28;52.06
68712;BME280;55690;51.566;19.198;2023-05-11T06:31:17;101986.91;;;19.31;52.12
68712;BME280;55690;51.566;19.198;2023-05-11T06:35:24;101987.57;;;18.83;52.30
68712;BME280;55690;51.566;19.198;2023-05-11T06:39:30;101995.97;;;19.52;52.25
68712;BME280;55690;51.566;19.198;2023-05-11T06:43:36;101984.89;;;19.33;50.95
68712;BME280;55690;51.566;19.198;2023-05-11T06:47:42;101978.88;;;19.58;51.60
68712;BME280;55690;51.566;19.198;2023-05-11T06:51:48;101985.38;;;19.48;51.66
68712;BME280;55690;51.566;19.198;2023-05-11T06:55:54;101983.71;;;19.95;50.53
68712;BME280;55690;51.566;19.198;2023-05-11T07:00:00;101981.80;;;19.67;51.00
68712;BME280;55690;51.566;19.198;2023-05-11T07:04:07;101973.45;;;20.82;50.32
68712;BME280;55690;51.566;19.198;2023-05-11T07:08:13;101975.91;;;20.85;49.99
68712;BME280;55690;51.566;19.198;2023-05-11T07:12:19;101975.37;;;21.19;50.09
68712;BME280;55690;51.566;19.198;2023-05-11T07:16:25;101974.52;;;21.46;49.76
68712;BME280;55690;51.566;19.198;2023-05-11T07:20:31;101971.19;;;21.42;49.66
68712;BME280;55690;51.566;19.198;2023-05-11T07:24:37;101969.57;;;21.22;48.69
68712;BME280;55690;51.566;19.198;2023-05-11T07:28:44;101972.31;;;21.49;48.72
68712;BME280;55690;51.566;19.198;2023-05-11T07:32:50;101968.88;;;21.83;49.34
68712;BME280;55690;51.566;19.198;2023-05-11T07:36:56;101965.71;;;21.78;48.59
68712;BME280;55690;51.566;19.198;2023-05-11T07:41:02;101971.95;;;21.62;48.82
68712;BME280;55690;51.566;19.198;2023-05-11T07:45:09;101969.01;;;22.09;49.65
68712;BME280;55690;51.566;19.198;2023-05-11T07:49:14;101965.38;;;22.08;48.42
68712;BME280;55690;51.566;19.198;2023-05-11T07:53:21;101967.76;;;21.58;48.38
68712;BME280;55690;51.566;19.198;2023-05-11T07:57:27;101968.66;;;22.30;49.39
68712;BME280;55690;51.566;19.198;2023-05-11T08:01:33;101967.44;;;22.76;48.08
68712;BME280;55690;51.566;19.198;2023-05-11T08:05:39;101961.15;;;22.22;47.16
68712;BME280;55690;51.566;19.198;2023-05-11T08:09:45;101970.05;;;23.03;48.57
68712;BME280;55690;51.566;19.198;2023-05-11T08:13:51;101969.60;;;22.64;47.59
68712;BME280;55690;51.566;19.198;2023-05-11T08:17:58;101972.52;;;22.37;47.20
68712;BME280;55690;51.566;19.198;2023-05-11T08:22:04;101968.27;;;23.28;47.21
68712;BME280;55690;51.566;19.198;2023-05-11T08:26:10;101972.86;;;22.60;47.04
68712;BME280;55690;51.566;19.198;2023-05-11T08:30:16;101964.67;;;23.44;47.27
68712;BME280;55690;51.566;19.198;2023-05-11T08:34:22;101961.37;;;23.40;46.87
68712;BME280;55690;51.566;19.198;2023-05-11T08:38:28;101948.88;;;23.78;46.36
68712;BME280;55690;51.566;19.198;2023-05-11T08:42:37;101951.02;;;22.56;46.90
68712;BME280;55690;51.566;19.198;2023-05-11T08:46:45;101961.40;;;24.07;46.79
68712;BME280;55690;51.566;19.198;2023-05-11T08:50:48;101952.88;;;24.00;45.79
68712;BME280;55690;51.566;19.198;2023-05-11T08:54:53;101951.52;;;24.29;45.37
68712;BME280;55690;51.566;19.198;2023-05-11T08:58:59;101942.15;;;24.46;45.27
68712;BME280;55690;51.566;19.198;2023-05-11T09:03:05;101950.80;;;22.94;45.58
68712;BME280;55690;51.566;19.198;2023-05-11T09:07:14;101951.97;;;23.67;46.50
68712;BME280;55690;51.566;19.198;2023-05-11T09:11:18;101946.27;;;23.93;46.06
68712;BME280;55690;51.566;19.198;2023-05-11T09:15:24;101935.19;;;23.77;46.05
68712;BME280;55690;51.566;19.198;2023-05-11T09:19:30;101951.41;;;23.55;45.47
68712;BME280;55690;51.566;19.198;2023-05-11T09:23:36;101937.13;;;24.41;45.80
68712;BME280;55690;51.566;19.198;2023-05-11T09:27:43;101947.98;;;24.83;45.19
68712;BME280;55690;51.566;19.198;2023-05-11T09:31:48;101930.70;;;24.41;45.03
68712;BME280;55690;51.566;19.198;2023-05-11T09:35:55;101843.79;;;24.24;46.04
68712;BME280;55690;51.566;19.198;2023-05-11T09:40:01;101949.79;;;24.52;44.78
68712;BME280;55690;51.566;19.198;2023-05-11T09:44:12;101930.36;;;24.44;44.84
68712;BME280;55690;51.566;19.198;2023-05-11T09:48:23;101940.25;;;24.38;45.31
68712;BME280;55690;51.566;19.198;2023-05-11T09:52:25;101930.16;;;23.97;45.93
68712;BME280;55690;51.566;19.198;2023-05-11T10:04:55;101926.00;;;26.06;45.56
68712;BME280;55690;51.566;19.198;2023-05-11T10:09:08;101929.92;;;24.87;45.65
68712;BME280;55690;51.566;19.198;2023-05-11T10:13:10;101923.03;;;25.23;45.82
68712;BME280;55690;51.566;19.198;2023-05-11T10:17:13;101921.05;;;25.00;45.42
68712;BME280;55690;51.566;19.198;2023-05-11T10:21:14;101926.45;;;24.85;45.65
68712;BME280;55690;51.566;19.198;2023-05-11T10:25:17;101919.40;;;24.67;44.88
68712;BME280;55690;51.566;19.198;2023-05-11T10:29:20;101917.03;;;25.11;44.61
68712;BME280;55690;51.566;19.198;2023-05-11T10:33:23;101916.63;;;24.67;45.31
68712;BME280;55690;51.566;19.198;2023-05-11T10:37:28;101914.61;;;25.08;44.67
68712;BME280;55690;51.566;19.198;2023-05-11T10:45:57;101912.73;;;25.62;44.76
68712;BME280;55690;51.566;19.198;2023-05-11T11:02:45;101893.57;;;24.42;44.34
68712;BME280;55690;51.566;19.198;2023-05-11T11:10:59;101893.09;;;25.02;44.51
68712;BME280;55690;51.566;19.198;2023-05-11T11:15:05;101894.82;;;24.95;45.04
68712;BME280;55690;51.566;19.198;2023-05-11T11:31:45;101886.34;;;24.96;43.76
68712;BME280;55690;51.566;19.198;2023-05-11T11:35:47;101888.91;;;25.06;44.19
68712;BME280;55690;51.566;19.198;2023-05-11T11:39:50;101874.46;;;25.10;43.21
68712;BME280;55690;51.566;19.198;2023-05-11T11:43:59;101880.23;;;25.01;43.66
68712;BME280;55690;51.566;19.198;2023-05-11T11:48:08;101881.64;;;24.88;44.12
68712;BME280;55690;51.566;19.198;2023-05-11T11:56:36;101875.89;;;24.18;44.68
68712;BME280;55690;51.566;19.198;2023-05-11T12:00:39;101876.57;;;23.88;45.10
68712;BME280;55690;51.566;19.198;2023-05-11T12:08:57;101876.08;;;24.88;44.92
68712;BME280;55690;51.566;19.198;2023-05-11T12:13:00;101878.63;;;24.51;45.17
68712;BME280;55690;51.566;19.198;2023-05-11T12:17:06;101868.43;;;24.11;45.01
68712;BME280;55690;51.566;19.198;2023-05-11T12:21:19;101873.63;;;24.22;44.87
68712;BME280;55690;51.566;19.198;2023-05-11T12:25:21;101867.52;;;25.37;43.51
68712;BME280;55690;51.566;19.198;2023-05-11T12:29:23;101867.62;;;24.74;44.20
68712;BME280;55690;51.566;19.198;2023-05-11T12:33:26;101862.73;;;26.00;44.33
68712;BME280;55690;51.566;19.198;2023-05-11T12:37:31;101855.17;;;26.08;44.07
68712;BME280;55690;51.566;19.198;2023-05-11T12:41:33;101861.01;;;25.53;43.94
68712;BME280;55690;51.566;19.198;2023-05-11T12:45:34;101850.02;;;24.98;43.80
68712;BME280;55690;51.566;19.198;2023-05-11T12:49:35;101850.39;;;25.26;43.29
68712;BME280;55690;51.566;19.198;2023-05-11T12:53:38;101837.41;;;25.95;43.64
68712;BME280;55690;51.566;19.198;2023-05-11T12:57:41;101840.22;;;25.41;42.51
68712;BME280;55690;51.566;19.198;2023-05-11T13:01:43;101851.08;;;24.97;43.13
68712;BME280;55690;51.566;19.198;2023-05-11T13:05:44;101842.70;;;25.05;43.03
68712;BME280;55690;51.566;19.198;2023-05-11T13:13:58;101839.23;;;25.03;43.93
68712;BME280;55690;51.566;19.198;2023-05-11T13:18:05;101835.95;;;24.91;44.00
68712;BME280;55690;51.566;19.198;2023-05-11T13:22:10;101834.55;;;24.95;44.83
68712;BME280;55690;51.566;19.198;2023-05-11T13:30:24;101843.39;;;24.60;44.87
68712;BME280;55690;51.566;19.198;2023-05-11T13:34:25;101832.01;;;24.77;44.40
68712;BME280;55690;51.566;19.198;2023-05-11T13:38:27;101825.36;;;24.47;43.88
68712;BME280;55690;51.566;19.198;2023-05-11T13:42:29;101837.66;;;24.61;44.27
68712;BME280;55690;51.566;19.198;2023-05-11T13:46:30;101835.94;;;24.52;44.60
68712;BME280;55690;51.566;19.198;2023-05-11T13:50:32;101823.16;;;24.10;43.92
68712;BME280;55690;51.566;19.198;2023-05-11T13:54:33;101821.01;;;24.92;44.94
68712;BME280;55690;51.566;19.198;2023-05-11T13:58:34;101814.98;;;24.80;44.06
68712;BME280;55690;51.566;19.198;2023-05-11T14:02:36;101810.95;;;24.99;44.06
68712;BME280;55690;51.566;19.198;2023-05-11T14:06:41;101819.79;;;24.56;44.32
68712;BME280;55690;51.566;19.198;2023-05-11T14:10:48;101816.56;;;24.75;44.12
68712;BME280;55690;51.566;19.198;2023-05-11T14:14:54;101822.80;;;24.21;44.26
68712;BME280;55690;51.566;19.198;2023-05-11T14:19:00;101818.12;;;24.22;45.07
68712;BME280;55690;51.566;19.198;2023-05-11T14:23:06;101812.75;;;24.20;45.08
68712;BME280;55690;51.566;19.198;2023-05-11T14:27:12;101801.32;;;23.99;44.14
68712;BME280;55690;51.566;19.198;2023-05-11T14:31:18;101803.57;;;24.04;44.36
68712;BME280;55690;51.566;19.198;2023-05-11T14:35:24;101813.63;;;23.97;44.88
68712;BME280;55690;51.566;19.198;2023-05-11T14:39:31;101809.30;;;23.94;45.18
68712;BME280;55690;51.566;19.198;2023-05-11T14:43:37;101805.86;;;23.68;45.44
68712;BME280;55690;51.566;19.198;2023-05-11T14:47:43;101813.30;;;23.83;45.25
68712;BME280;55690;51.566;19.198;2023-05-11T14:51:49;101813.84;;;23.71;46.61
68712;BME280;55690;51.566;19.198;2023-05-11T14:55:55;101809.79;;;23.49;46.10
68712;BME280;55690;51.566;19.198;2023-05-11T15:00:02;101802.34;;;23.33;45.96
68712;BME280;55690;51.566;19.198;2023-05-11T15:04:08;101812.04;;;23.29;46.27
68712;BME280;55690;51.566;19.198;2023-05-11T15:08:14;101793.10;;;23.08;46.14
68712;BME280;55690;51.566;19.198;2023-05-11T15:12:20;101809.79;;;23.49;46.16
68712;BME280;55690;51.566;19.198;2023-05-11T15:16:26;101814.80;;;23.29;46.53
68712;BME280;55690;51.566;19.198;2023-05-11T15:20:32;101813.94;;;23.29;46.51
68712;BME280;55690;51.566;19.198;2023-05-11T15:24:38;101814.05;;;23.11;47.22
68712;BME280;55690;51.566;19.198;2023-05-11T15:28:44;101805.52;;;22.96;47.31
68712;BME280;55690;51.566;19.198;2023-05-11T15:32:51;101803.89;;;22.77;46.87
68712;BME280;55690;51.566;19.198;2023-05-11T15:36:57;101808.69;;;22.67;46.48
68712;BME280;55690;51.566;19.198;2023-05-11T15:41:03;101810.23;;;22.96;47.36
68712;BME280;55690;51.566;19.198;2023-05-11T15:45:11;101808.96;;;22.82;47.13
68712;BME280;55690;51.566;19.198;2023-05-11T15:49:19;101821.08;;;22.81;46.97
68712;BME280;55690;51.566;19.198;2023-05-11T15:53:21;101813.46;;;22.83;47.37
68712;BME280;55690;51.566;19.198;2023-05-11T15:57:28;101813.30;;;22.84;47.13
68712;BME280;55690;51.566;19.198;2023-05-11T16:01:34;101818.95;;;22.41;46.57
68712;BME280;55690;51.566;19.198;2023-05-11T16:05:40;101802.48;;;22.73;46.96
68712;BME280;55690;51.566;19.198;2023-05-11T16:09:46;101816.58;;;22.54;46.54
68712;BME280;55690;51.566;19.198;2023-05-11T16:13:52;101821.07;;;22.47;47.57
68712;BME280;55690;51.566;19.198;2023-05-11T16:17:58;101816.09;;;22.58;47.25
68712;BME280;55690;51.566;19.198;2023-05-11T16:22:05;101816.05;;;21.99;47.74
68712;BME280;55690;51.566;19.198;2023-05-11T16:26:11;101817.41;;;21.95;47.53
68712;BME280;55690;51.566;19.198;2023-05-11T16:30:17;101822.20;;;22.10;47.71
68712;BME280;55690;51.566;19.198;2023-05-11T16:34:23;101824.87;;;22.20;47.64
68712;BME280;55690;51.566;19.198;2023-05-11T16:38:30;101824.35;;;21.99;47.72
68712;BME280;55690;51.566;19.198;2023-05-11T16:42:35;101823.04;;;22.03;47.33
68712;BME280;55690;51.566;19.198;2023-05-11T16:46:42;101822.68;;;21.62;47.76
68712;BME280;55690;51.566;19.198;2023-05-11T16:50:48;101831.41;;;21.75;47.49
68712;BME280;55690;51.566;19.198;2023-05-11T16:54:54;101835.37;;;21.73;47.82
68712;BME280;55690;51.566;19.198;2023-05-11T16:59:00;101830.15;;;21.70;47.82
68712;BME280;55690;51.566;19.198;2023-05-11T17:03:06;101832.16;;;21.42;48.38
68712;BME280;55690;51.566;19.198;2023-05-11T17:07:12;101833.71;;;21.27;48.53
68712;BME280;55690;51.566;19.198;2023-05-11T17:11:23;101846.13;;;21.40;48.33
68712;BME280;55690;51.566;19.198;2023-05-11T17:15:25;101843.59;;;21.02;49.03
68712;BME280;55690;51.566;19.198;2023-05-11T17:19:31;101855.15;;;20.87;49.25
68712;BME280;55690;51.566;19.198;2023-05-11T17:23:37;101855.45;;;20.84;48.83
68712;BME280;55690;51.566;19.198;2023-05-11T17:27:43;101856.85;;;20.98;48.65
68712;BME280;55690;51.566;19.198;2023-05-11T17:31:50;101859.04;;;20.95;48.81
68712;BME280;55690;51.566;19.198;2023-05-11T17:35:56;101861.55;;;20.88;49.30
68712;BME280;55690;51.566;19.198;2023-05-11T17:40:04;101870.27;;;20.56;49.85
68712;BME280;55690;51.566;19.198;2023-05-11T17:44:08;101865.63;;;20.84;49.71
68712;BME280;55690;51.566;19.198;2023-05-11T17:48:14;101878.37;;;20.67;50.10
68712;BME280;55690;51.566;19.198;2023-05-11T17:52:22;101881.78;;;20.42;50.53
68712;BME280;55690;51.566;19.198;2023-05-11T17:56:26;101876.73;;;20.28;50.24
68712;BME280;55690;51.566;19.198;2023-05-11T18:00:33;101880.20;;;20.39;50.28
68712;BME280;55690;51.566;19.198;2023-05-11T18:04:39;101880.95;;;20.22;50.52
68712;BME280;55690;51.566;19.198;2023-05-11T18:08:45;101893.72;;;20.23;50.68
68712;BME280;55690;51.566;19.198;2023-05-11T18:12:51;101901.55;;;20.28;50.43
68712;BME280;55690;51.566;19.198;2023-05-11T18:16:57;101905.93;;;20.11;50.58
68712;BME280;55690;51.566;19.198;2023-05-11T18:21:07;101907.66;;;20.12;50.66
68712;BME280;55690;51.566;19.198;2023-05-11T18:25:10;101916.41;;;19.88;51.02
68712;BME280;55690;51.566;19.198;2023-05-11T18:29:16;101910.59;;;19.72;51.21
68712;BME280;55690;51.566;19.198;2023-05-11T18:33:22;101923.01;;;19.37;52.26
68712;BME280;55690;51.566;19.198;2023-05-11T18:37:24;101928.48;;;19.27;51.96
68712;BME280;55690;51.566;19.198;2023-05-11T18:41:26;101928.79;;;19.34;52.13
68712;BME280;55690;51.566;19.198;2023-05-11T18:45:28;101934.37;;;19.04;52.44
68712;BME280;55690;51.566;19.198;2023-05-11T18:49:32;101933.88;;;19.39;52.02
68712;BME280;55690;51.566;19.198;2023-05-11T18:53:35;101938.34;;;19.30;52.38
68712;BME280;55690;51.566;19.198;2023-05-11T18:57:36;101952.02;;;18.71;53.33
68712;BME280;55690;51.566;19.198;2023-05-11T19:01:40;101958.31;;;18.82;53.25
68712;BME280;55690;51.566;19.198;2023-05-11T19:05:42;101962.07;;;18.81;53.50
68712;BME280;55690;51.566;19.198;2023-05-11T19:09:45;101966.50;;;18.73;53.89
68712;BME280;55690;51.566;19.198;2023-05-11T19:13:46;101973.89;;;18.72;53.85
68712;BME280;55690;51.566;19.198;2023-05-11T19:17:50;101975.44;;;18.65;53.95
68712;BME280;55690;51.566;19.198;2023-05-11T19:21:51;101983.95;;;18.41;54.40
68712;BME280;55690;51.566;19.198;2023-05-11T19:25:53;101982.23;;;18.19;54.51
68712;BME280;55690;51.566;19.198;2023-05-11T19:29:55;101982.05;;;18.21;54.81
68712;BME280;55690;51.566;19.198;2023-05-11T19:33:57;101995.34;;;17.84;55.26
68712;BME280;55690;51.566;19.198;2023-05-11T19:37:59;101990.25;;;18.11;54.89
68712;BME280;55690;51.566;19.198;2023-05-11T19:42:00;101996.59;;;17.80;55.47
68712;BME280;55690;51.566;19.198;2023-05-11T19:46:03;101998.88;;;17.63;55.71
68712;BME280;55690;51.566;19.198;2023-05-11T19:50:05;102007.03;;;17.65;55.66
68712;BME280;55690;51.566;19.198;2023-05-11T19:54:09;101995.38;;;17.61;56.01
68712;BME280;55690;51.566;19.198;2023-05-11T19:58:11;102001.27;;;17.46;55.83
68712;BME280;55690;51.566;19.198;2023-05-11T20:02:12;102009.39;;;17.47;55.91
68712;BME280;55690;51.566;19.198;2023-05-11T20:06:14;102001.02;;;17.49;55.90
68712;BME280;55690;51.566;19.198;2023-05-11T20:10:15;102002.77;;;17.39;56.12
68712;BME280;55690;51.566;19.198;2023-05-11T20:14:17;102007.13;;;17.52;55.54
68712;BME280;55690;51.566;19.198;2023-05-11T20:18:18;102016.51;;;17.39;55.51
68712;BME280;55690;51.566;19.198;2023-05-11T20:22:19;102020.13;;;17.39;55.51
68712;BME280;55690;51.566;19.198;2023-05-11T20:26:22;102013.92;;;17.15;55.82
68712;BME280;55690;51.566;19.198;2023-05-11T20:30:25;102016.17;;;17.10;55.63
68712;BME280;55690;51.566;19.198;2023-05-11T20:34:26;102018.52;;;17.03;55.60
68712;BME280;55690;51.566;19.198;2023-05-11T20:38:28;102020.66;;;17.22;55.40
68712;BME280;55690;51.566;19.198;2023-05-11T20:42:29;102018.16;;;17.19;55.33
68712;BME280;55690;51.566;19.198;2023-05-11T20:46:31;102025.29;;;17.21;55.10
68712;BME280;55690;51.566;19.198;2023-05-11T20:50:32;102018.78;;;17.00;55.63
68712;BME280;55690;51.566;19.198;2023-05-11T20:54:34;102021.27;;;16.81;55.69
68712;BME280;55690;51.566;19.198;2023-05-11T20:58:36;102015.15;;;16.77;55.90
68712;BME280;55690;51.566;19.198;2023-05-11T21:02:37;102022.39;;;16.78;55.73
68712;BME280;55690;51.566;19.198;2023-05-11T21:06:38;102016.34;;;16.62;56.04
68712;BME280;55690;51.566;19.198;2023-05-11T21:10:41;102019.38;;;16.70;55.95
68712;BME280;55690;51.566;19.198;2023-05-11T21:14:42;102023.77;;;16.38;56.45
68712;BME280;55690;51.566;19.198;2023-05-11T21:18:43;102021.49;;;16.67;55.97
68712;BME280;55690;51.566;19.198;2023-05-11T21:22:45;102026.52;;;16.49;56.16
68712;BME280;55690;51.566;19.198;2023-05-11T21:26:47;102028.21;;;16.27;56.41
68712;BME280;55690;51.566;19.198;2023-05-11T21:30:49;102035.13;;;16.44;56.11
68712;BME280;55690;51.566;19.198;2023-05-11T21:34:52;102033.74;;;16.50;56.21
68712;BME280;55690;51.566;19.198;2023-05-11T21:38:53;102032.77;;;16.16;56.33
68712;BME280;55690;51.566;19.198;2023-05-11T21:42:54;102029.27;;;16.14;56.53
68712;BME280;55690;51.566;19.198;2023-05-11T21:46:56;102029.66;;;16.20;56.29
68712;BME280;55690;51.566;19.198;2023-05-11T21:50:57;102042.34;;;15.86;56.79
68712;BME280;55690;51.566;19.198;2023-05-11T21:54:59;102039.61;;;15.86;57.33
68712;BME280;55690;51.566;19.198;2023-05-11T21:59:00;102044.63;;;15.56;57.56
68712;BME280;55690;51.566;19.198;2023-05-11T22:03:01;102048.70;;;15.38;57.66
68712;BME280;55690;51.566;19.198;2023-05-11T22:07:03;102052.16;;;15.65;57.29
68712;BME280;55690;51.566;19.198;2023-05-11T22:11:05;102048.26;;;15.44;57.75
68712;BME280;55690;51.566;19.198;2023-05-11T22:15:07;102048.31;;;15.68;57.43
68712;BME280;55690;51.566;19.198;2023-05-11T22:19:09;102046.88;;;15.75;56.84